Poynette, Wisconsin
Current Conditions -  °F | °C
As of 6:53 PM on Sunday 23 Nov 2014 (Local Time) from KMSN Reporting Station
Light Rain Light Rain  
Wind Chill: 45°   Ceiling: 500
Heat Index: 48°   Visibility: 3mi
Dew Point: 46°   Wind: 6mph
Humidity: 93%   Direction: 120°ESE
Pressure: 29.32"   Gusts: NA
Location:  43.39°N, 89.4°W
Report Text: KMSN 240053Z 12005KT 3SM -RA BR OVC005 09/08 A2932 RMK AO2 SLP930 P0004 T00890078
Loading
Personal Weather Stations






























Interactive Weather Map New forecast layout! Learn more

10-Day Weather Forecast

Advertisements
Track Severe Weather on mobile